createdAt,value
2019-05-02T00:01:48.750Z,13.70
2019-05-02T00:04:20.065Z,13.37
2019-05-02T00:07:03.471Z,14.03
2019-05-02T00:09:33.511Z,13.63
2019-05-02T00:12:03.191Z,14.90
2019-05-02T00:14:31.998Z,13.83
2019-05-02T00:17:00.710Z,13.37
2019-05-02T00:19:29.450Z,13.87
2019-05-02T00:21:58.193Z,13.73
2019-05-02T00:24:26.919Z,12.87
2019-05-02T00:26:56.082Z,15.27
2019-05-02T00:29:26.091Z,13.17
2019-05-02T00:31:54.808Z,13.80
2019-05-02T00:34:23.602Z,13.87
2019-05-02T00:36:52.329Z,13.43
2019-05-02T00:39:21.179Z,14.27
2019-05-02T00:41:49.905Z,13.20
2019-05-02T00:44:18.619Z,13.00
2019-05-02T00:46:47.350Z,14.13
2019-05-02T00:49:16.062Z,13.33
2019-05-02T00:51:44.801Z,13.43
2019-05-02T00:54:13.547Z,14.57
2019-05-02T00:56:44.203Z,13.10
2019-05-02T00:59:32.008Z,14.03
2019-05-02T01:02:22.841Z,14.17
2019-05-02T01:04:51.656Z,13.93
2019-05-02T01:07:25.014Z,14.07
2019-05-02T01:09:50.797Z,14.00
2019-05-02T01:12:26.358Z,14.47
2019-05-02T01:14:50.069Z,13.67
2019-05-02T01:17:18.953Z,15.03
2019-05-02T01:19:51.501Z,15.30
2019-05-02T01:22:18.223Z,14.53
2019-05-02T01:24:47.010Z,14.80
2019-05-02T01:27:22.659Z,17.13
2019-05-02T01:30:01.346Z,15.97
2019-05-02T01:32:38.234Z,16.57
2019-05-02T01:35:38.427Z,17.13
2019-05-02T01:38:14.933Z,17.03
2019-05-02T01:40:48.047Z,17.40
2019-05-02T01:43:23.962Z,17.43
2019-05-02T01:45:52.683Z,19.10
2019-05-02T01:48:21.405Z,17.80
2019-05-02T01:50:50.154Z,17.77
2019-05-02T01:53:18.878Z,19.13
2019-05-02T01:55:51.870Z,19.67
2019-05-02T01:58:21.003Z,20.27
2019-05-02T02:00:48.828Z,19.27
2019-05-02T02:03:17.558Z,18.17
2019-05-02T02:05:46.294Z,19.33
2019-05-02T02:08:15.030Z,18.80
2019-05-02T02:10:44.026Z,19.90
2019-05-02T02:13:13.357Z,20.00
2019-05-02T02:15:42.066Z,21.80
2019-05-02T02:18:11.463Z,20.13
2019-05-02T02:20:58.110Z,19.40
2019-05-02T02:23:49.680Z,19.50
2019-05-02T02:26:20.126Z,20.63
2019-05-02T02:28:48.857Z,20.67
2019-05-02T02:31:19.563Z,21.60
2019-05-02T02:33:49.920Z,22.07
2019-05-02T02:36:29.929Z,22.17
2019-05-02T02:38:49.308Z,20.47
2019-05-02T02:41:18.118Z,21.60
2019-05-02T02:44:03.114Z,21.03
2019-05-02T02:46:37.863Z,22.63
2019-05-02T02:49:03.833Z,20.93
2019-05-02T02:51:32.532Z,21.13
2019-05-02T02:54:03.980Z,23.67
2019-05-02T02:56:34.572Z,23.10
2019-05-02T02:59:02.166Z,21.40
2019-05-02T03:01:31.274Z,23.50
2019-05-02T03:04:01.945Z,21.40
2019-05-02T03:06:30.656Z,22.30
2019-05-02T03:08:59.423Z,20.90
2019-05-02T03:11:31.300Z,22.57
2019-05-02T03:14:14.999Z,22.53
2019-05-02T03:16:46.918Z,24.00
2019-05-02T03:19:21.291Z,23.93
2019-05-02T03:21:54.202Z,25.27
2019-05-02T03:24:27.181Z,23.27
2019-05-02T03:26:58.455Z,23.47
2019-05-02T03:29:39.738Z,23.73
2019-05-02T03:32:12.466Z,24.63
2019-05-02T03:34:44.881Z,24.50
2019-05-02T03:37:03.065Z,22.60
2019-05-02T03:39:28.406Z,25.63
2019-05-02T03:42:02.647Z,26.70
2019-05-02T03:44:27.688Z,26.93
2019-05-02T03:47:01.861Z,29.23
2019-05-02T03:49:26.911Z,26.23
2019-05-02T03:52:02.026Z,28.00
2019-05-02T03:54:26.044Z,29.50
2019-05-02T03:56:54.785Z,28.13
2019-05-02T03:59:37.067Z,27.43
2019-05-02T04:01:54.609Z,28.53
2019-05-02T04:04:23.354Z,27.20
2019-05-02T04:06:55.103Z,25.27
2019-05-02T04:09:38.743Z,27.00
2019-05-02T04:12:04.695Z,25.97
2019-05-02T04:14:38.153Z,24.33
2019-05-02T04:17:04.030Z,26.70
2019-05-02T04:19:35.036Z,25.67
2019-05-02T04:22:08.646Z,25.97
2019-05-02T04:24:33.945Z,25.77
2019-05-02T04:27:02.731Z,28.10
2019-05-02T04:29:33.052Z,25.10
2019-05-02T04:32:04.614Z,26.90
2019-05-02T04:34:32.337Z,25.43
2019-05-02T04:37:04.063Z,26.90
2019-05-02T04:39:31.479Z,28.93
2019-05-02T04:42:05.488Z,28.93
2019-05-02T04:44:40.719Z,30.47
2019-05-02T04:47:13.876Z,28.70
2019-05-02T04:49:35.778Z,30.13
2019-05-02T04:52:10.408Z,31.23
2019-05-02T04:54:32.893Z,29.70
2019-05-02T04:57:02.445Z,30.07
2019-05-02T04:59:33.357Z,28.87
2019-05-02T05:02:02.060Z,30.73
2019-05-02T05:04:33.445Z,28.00
2019-05-02T05:07:01.526Z,28.00
2019-05-02T05:09:30.351Z,27.27
2019-05-02T05:12:02.477Z,28.47
2019-05-02T05:14:31.396Z,31.00
2019-05-02T05:16:59.952Z,29.97
2019-05-02T05:19:32.614Z,30.87
2019-05-02T05:22:04.660Z,30.50
2019-05-02T05:24:42.188Z,30.10
2019-05-02T05:27:13.363Z,30.77
2019-05-02T05:29:39.500Z,32.43
2019-05-02T05:32:10.166Z,32.87
2019-05-02T05:34:38.694Z,30.30
2019-05-02T05:37:09.382Z,33.13
2019-05-02T05:39:38.209Z,34.80
2019-05-02T05:42:10.363Z,35.80
2019-05-02T05:44:39.901Z,34.37
2019-05-02T05:47:12.101Z,33.97
2019-05-02T05:49:38.751Z,32.40
2019-05-02T05:52:08.007Z,33.43
2019-05-02T05:54:40.467Z,35.40
2019-05-02T05:57:07.685Z,33.57
2019-05-02T05:59:38.025Z,34.93
2019-05-02T06:02:13.129Z,34.90
2019-05-02T06:04:38.733Z,37.90
2019-05-02T06:07:07.759Z,36.53
2019-05-02T06:09:36.481Z,39.37
2019-05-02T06:12:05.307Z,38.50
2019-05-02T06:14:34.568Z,39.00
2019-05-02T06:17:03.642Z,39.17
2019-05-02T06:19:32.689Z,42.67
2019-05-02T06:22:03.054Z,42.57
2019-05-02T06:24:33.912Z,44.30
2019-05-02T06:27:02.279Z,45.97
2019-05-02T06:29:31.011Z,46.60
2019-05-02T06:32:02.096Z,44.37
2019-05-02T06:34:30.839Z,45.87
2019-05-02T06:36:59.643Z,49.40
2019-05-02T06:39:31.994Z,45.97
2019-05-02T06:41:58.890Z,47.27
2019-05-02T06:44:27.633Z,50.47
2019-05-02T06:46:59.269Z,50.00
2019-05-02T06:49:26.959Z,49.10
2019-05-02T06:51:56.217Z,47.37
2019-05-02T06:54:26.161Z,48.03
2019-05-02T06:56:54.896Z,48.73
2019-05-02T06:59:23.693Z,48.13
2019-05-02T07:01:57.544Z,48.93
2019-05-02T07:04:24.891Z,50.77
2019-05-02T07:06:58.518Z,47.53
2019-05-02T07:09:24.291Z,49.20
2019-05-02T07:11:57.479Z,47.47
2019-05-02T07:14:25.492Z,48.40
2019-05-02T07:17:05.662Z,49.90
2019-05-02T07:19:37.650Z,51.80
2019-05-02T07:22:06.386Z,49.43
2019-05-02T07:24:35.204Z,49.60
2019-05-02T07:27:05.361Z,52.20
2019-05-02T07:29:34.075Z,49.47
2019-05-02T07:32:02.893Z,50.40
2019-05-02T07:34:31.666Z,51.77
2019-05-02T07:37:00.398Z,50.43
2019-05-02T07:39:29.159Z,52.17
2019-05-02T07:42:00.614Z,51.07
2019-05-02T07:44:32.728Z,48.73
2019-05-02T07:47:02.597Z,48.87
2019-05-02T07:49:32.467Z,43.80
2019-05-02T07:51:59.784Z,42.83
2019-05-02T07:54:28.520Z,42.73
2019-05-02T07:56:57.321Z,40.83
2019-05-02T07:59:26.044Z,39.37
2019-05-02T08:01:54.809Z,41.27
2019-05-02T08:04:23.561Z,37.10
2019-05-02T08:06:52.339Z,38.50
2019-05-02T08:09:21.154Z,39.40
2019-05-02T08:11:49.883Z,38.53
2019-05-02T08:14:18.605Z,40.83
2019-05-02T08:16:47.392Z,39.33
2019-05-02T08:19:16.112Z,41.13
2019-05-02T08:21:44.863Z,40.23
2019-05-02T08:24:13.603Z,39.07
2019-05-02T08:27:07.323Z,42.37
2019-05-02T08:29:36.770Z,41.47
2019-05-02T08:32:05.502Z,41.17
2019-05-02T08:34:34.216Z,38.83
2019-05-02T08:37:04.603Z,41.43
2019-05-02T08:39:34.875Z,42.00
2019-05-02T08:42:04.016Z,42.13
2019-05-02T08:44:32.731Z,41.67
2019-05-02T08:47:01.530Z,41.53
2019-05-02T08:49:30.273Z,40.73
2019-05-02T08:51:59.438Z,40.87
2019-05-02T08:54:32.693Z,43.73
2019-05-02T08:57:00.305Z,44.53
2019-05-02T08:59:29.068Z,40.63
2019-05-02T09:01:57.874Z,42.77
2019-05-02T09:04:29.174Z,41.60
2019-05-02T09:06:58.624Z,44.17
2019-05-02T09:09:29.354Z,43.07
2019-05-02T09:12:09.660Z,48.03
2019-05-02T09:14:28.535Z,45.47
2019-05-02T09:17:00.182Z,40.93
2019-05-02T09:19:27.730Z,42.13
2019-05-02T09:21:56.439Z,41.87
2019-05-02T09:24:25.185Z,39.50
2019-05-02T09:26:53.905Z,41.50
2019-05-02T09:29:22.621Z,43.00
2019-05-02T09:31:52.703Z,43.43
2019-05-02T09:34:26.392Z,41.83
2019-05-02T09:36:53.046Z,42.00
2019-05-02T09:39:22.705Z,41.20
2019-05-02T09:41:52.641Z,40.50
2019-05-02T09:44:22.397Z,40.30
2019-05-02T09:46:55.230Z,36.97
2019-05-02T09:49:22.162Z,38.73
2019-05-02T09:51:59.038Z,36.47
2019-05-02T09:54:23.137Z,39.27
2019-05-02T09:56:52.508Z,39.90
2019-05-02T09:59:29.901Z,39.00
2019-05-02T10:01:54.662Z,34.50
2019-05-02T10:04:23.411Z,35.20
2019-05-02T10:06:52.576Z,36.53
2019-05-02T10:09:24.397Z,33.33
2019-05-02T10:11:52.528Z,34.93
2019-05-02T10:14:22.667Z,36.87
2019-05-02T10:16:52.971Z,35.97
2019-05-02T10:19:25.936Z,37.70
2019-05-02T10:21:56.143Z,34.90
2019-05-02T10:24:23.134Z,37.37
2019-05-02T10:26:55.259Z,36.27
2019-05-02T10:29:28.121Z,41.07
2019-05-02T10:31:52.885Z,36.77
2019-05-02T10:34:22.637Z,37.73
2019-05-02T10:36:58.729Z,38.57
2019-05-02T10:39:23.465Z,36.80
2019-05-02T10:41:52.756Z,38.47
2019-05-02T10:44:22.611Z,39.60
2019-05-02T10:46:58.823Z,40.50
2019-05-02T10:49:58.766Z,38.97
2019-05-02T10:52:34.017Z,40.43
2019-05-02T10:54:57.899Z,40.43
2019-05-02T10:57:26.626Z,44.50
2019-05-02T10:59:56.235Z,44.53
2019-05-02T11:02:41.883Z,41.00
2019-05-02T11:05:16.995Z,45.97
2019-05-02T11:07:44.330Z,42.47
2019-05-02T11:10:13.168Z,44.80
2019-05-02T11:12:57.165Z,43.50
2019-05-02T11:15:47.631Z,44.77
2019-05-02T11:18:18.982Z,49.37
2019-05-02T11:20:47.702Z,45.50
2019-05-02T11:23:16.458Z,48.57
2019-05-02T11:25:45.204Z,47.90
2019-05-02T11:28:13.999Z,49.50
2019-05-02T11:30:43.005Z,49.03
2019-05-02T11:33:13.359Z,51.93
2019-05-02T11:35:49.101Z,49.83
2019-05-02T11:38:35.877Z,51.20
2019-05-02T11:40:43.075Z,50.97
2019-05-02T11:43:11.815Z,51.03
2019-05-02T11:45:42.402Z,55.50
2019-05-02T11:48:11.946Z,55.77
2019-05-02T11:50:42.247Z,57.43
2019-05-02T11:53:23.301Z,58.53
2019-05-02T11:55:43.719Z,58.03
2019-05-02T11:58:12.572Z,51.97
2019-05-02T12:00:45.354Z,52.13
2019-05-02T12:03:28.225Z,53.37
2019-05-02T12:05:55.329Z,49.90
2019-05-02T12:08:24.222Z,51.70
2019-05-02T12:10:53.007Z,53.00
2019-05-02T12:13:22.699Z,47.83
2019-05-02T12:15:52.024Z,46.13
2019-05-02T12:18:23.167Z,49.47
2019-05-02T12:20:51.979Z,49.40
2019-05-02T12:23:22.649Z,46.03
2019-05-02T12:25:51.988Z,48.87
2019-05-02T12:28:22.787Z,48.73
2019-05-02T12:30:52.041Z,47.53
2019-05-02T12:33:22.507Z,45.57
2019-05-02T12:35:52.467Z,49.47
2019-05-02T12:38:23.061Z,45.13
2019-05-02T12:40:52.111Z,47.13
2019-05-02T12:43:22.910Z,44.20
2019-05-02T12:45:52.843Z,44.87
2019-05-02T12:48:22.128Z,42.53
2019-05-02T12:50:52.762Z,39.37
2019-05-02T12:53:21.995Z,38.27
2019-05-02T12:55:52.694Z,39.10
2019-05-02T12:58:22.003Z,38.63
2019-05-02T13:00:52.841Z,36.63
2019-05-02T13:03:44.659Z,37.70
2019-05-02T13:06:13.369Z,37.33
2019-05-02T13:08:52.478Z,35.63
2019-05-02T13:11:52.304Z,33.63
2019-05-02T13:14:25.219Z,33.80
2019-05-02T13:17:01.568Z,30.33
2019-05-02T13:19:37.132Z,31.07
2019-05-02T13:22:29.173Z,31.37
2019-05-02T13:25:02.198Z,29.17
2019-05-02T13:27:42.979Z,26.50
2019-05-02T13:30:03.384Z,24.47
2019-05-02T13:32:48.078Z,27.67
2019-05-02T13:35:22.299Z,24.53
2019-05-02T13:37:51.832Z,24.03
2019-05-02T13:40:28.324Z,23.10
2019-05-02T13:42:57.142Z,22.03
2019-05-02T13:45:35.283Z,23.00
2019-05-02T13:48:04.051Z,22.77
2019-05-02T13:50:32.858Z,22.37
2019-05-02T13:53:02.654Z,19.43
2019-05-02T13:55:35.923Z,19.73
2019-05-02T13:58:04.650Z,20.73
2019-05-02T14:00:42.352Z,20.77
2019-05-02T14:03:11.909Z,21.73
2019-05-02T14:05:49.305Z,20.73
2019-05-02T14:08:36.547Z,20.50
2019-05-02T14:11:21.826Z,20.90
2019-05-02T14:13:52.174Z,19.23
2019-05-02T14:16:22.141Z,17.63
2019-05-02T14:18:52.994Z,19.43
2019-05-02T14:21:22.399Z,18.63
2019-05-02T14:23:51.826Z,21.33
2019-05-02T14:26:29.613Z,19.20
2019-05-02T14:28:53.119Z,20.50
2019-05-02T14:31:21.772Z,20.10
2019-05-02T14:34:08.187Z,18.90
2019-05-02T14:36:36.913Z,19.97
2019-05-02T14:39:06.174Z,21.67
2019-05-02T14:41:40.439Z,18.00
2019-05-02T14:44:05.453Z,21.93
2019-05-02T14:46:39.304Z,22.07
2019-05-02T14:49:04.630Z,23.27
2019-05-02T14:51:36.463Z,23.20
2019-05-02T14:54:08.119Z,23.37
2019-05-02T14:56:47.602Z,23.27
2019-05-02T14:59:17.887Z,25.37
2019-05-02T15:01:48.029Z,26.83
2019-05-02T15:04:16.746Z,26.70
2019-05-02T15:06:47.444Z,27.10
2019-05-02T15:09:36.339Z,26.77
2019-05-02T15:12:14.074Z,27.40
2019-05-02T15:14:35.946Z,26.20
2019-05-02T15:17:04.813Z,26.40
2019-05-02T15:19:33.535Z,26.30
2019-05-02T15:22:02.440Z,27.63
2019-05-02T15:24:33.358Z,27.13
2019-05-02T15:27:03.972Z,27.80
2019-05-02T15:29:32.376Z,25.57
2019-05-02T15:32:19.058Z,26.93
2019-05-02T15:35:17.707Z,25.13
2019-05-02T15:37:46.686Z,25.07
2019-05-02T15:42:52.304Z,25.57
2019-05-02T15:45:23.587Z,26.10
2019-05-02T15:47:52.633Z,25.53
2019-05-02T15:50:25.546Z,24.80
2019-05-02T15:53:02.070Z,22.90
2019-05-02T15:55:32.439Z,24.37
2019-05-02T15:58:02.416Z,24.37
2019-05-02T16:00:35.000Z,24.07
2019-05-02T16:03:04.556Z,24.30
2019-05-02T16:05:36.720Z,24.30
2019-05-02T16:08:08.270Z,22.73
2019-05-02T16:10:38.569Z,23.60
2019-05-02T16:13:08.802Z,24.23
2019-05-02T16:15:36.264Z,18.80
2019-05-02T16:18:05.359Z,15.37
2019-05-02T16:20:47.269Z,15.77
2019-05-02T16:23:18.964Z,12.97
2019-05-02T16:25:45.217Z,12.93
2019-05-02T16:28:13.986Z,9.73
2019-05-02T16:30:47.506Z,10.23
2019-05-02T16:33:19.692Z,8.63
2019-05-02T16:35:46.303Z,9.03
2019-05-02T16:38:15.854Z,5.90
2019-05-02T16:40:44.554Z,5.43
2019-05-02T16:43:13.283Z,5.80
2019-05-02T16:45:43.939Z,5.67
2019-05-02T16:48:12.439Z,5.37
2019-05-02T16:50:42.090Z,6.13
2019-05-02T16:53:11.756Z,6.30
2019-05-02T16:55:43.427Z,5.10
2019-05-02T16:58:11.869Z,4.73
2019-05-02T17:00:42.537Z,5.63
2019-05-02T17:03:12.629Z,4.60
2019-05-02T17:05:44.074Z,4.83
2019-05-02T17:08:28.366Z,4.30
2019-05-02T17:11:03.610Z,3.50
2019-05-02T17:13:35.699Z,3.60
2019-05-02T17:16:06.818Z,3.67
2019-05-02T17:18:33.314Z,3.60
2019-05-02T17:21:02.086Z,2.27
2019-05-02T17:23:32.805Z,4.00
2019-05-02T17:26:01.584Z,3.00
2019-05-02T17:28:31.716Z,3.33
2019-05-02T17:31:00.646Z,2.30
2019-05-02T17:33:29.380Z,2.30
2019-05-02T17:35:58.093Z,2.90
2019-05-02T17:38:29.227Z,2.30
2019-05-02T17:40:59.281Z,2.40
2019-05-02T17:43:27.786Z,2.77
2019-05-02T17:45:56.602Z,2.30
2019-05-02T17:48:25.490Z,2.73
2019-05-02T17:51:09.935Z,3.30
2019-05-02T17:53:41.551Z,2.33
2019-05-02T17:56:13.074Z,2.47
2019-05-02T17:58:39.802Z,3.50
2019-05-02T18:01:12.995Z,2.80
2019-05-02T18:03:42.525Z,2.70
2019-05-02T18:06:12.631Z,2.70
2019-05-02T18:08:46.194Z,2.63
2019-05-02T18:11:12.724Z,3.20
2019-05-02T18:13:42.328Z,2.97
2019-05-02T18:16:15.026Z,3.27
2019-05-02T18:18:43.686Z,2.80
2019-05-02T18:21:12.810Z,3.10
2019-05-02T18:23:42.801Z,3.70
2019-05-02T18:26:11.707Z,2.70
2019-05-02T18:28:46.979Z,3.13
2019-05-02T18:31:12.242Z,3.20
2019-05-02T18:33:42.508Z,2.87
2019-05-02T18:36:11.395Z,3.00
2019-05-02T18:38:41.736Z,3.87
2019-05-02T18:41:12.086Z,3.37
2019-05-02T18:43:45.081Z,2.73
2019-05-02T18:46:30.754Z,2.93
2019-05-02T18:48:59.625Z,3.80
2019-05-02T18:51:28.346Z,4.27
2019-05-02T18:53:58.003Z,3.27
2019-05-02T18:56:27.555Z,3.80
2019-05-02T18:58:56.265Z,3.30
2019-05-02T19:01:25.014Z,3.20
2019-05-02T19:03:56.172Z,3.23
2019-05-02T19:06:28.022Z,3.37
2019-05-02T19:08:54.919Z,3.40
2019-05-02T19:11:26.893Z,3.10
2019-05-02T19:13:54.165Z,2.80
2019-05-02T19:16:24.908Z,3.03
2019-05-02T19:18:57.026Z,3.00
2019-05-02T19:21:26.404Z,3.03
2019-05-02T19:23:54.450Z,2.60
2019-05-02T19:26:23.186Z,2.40
2019-05-02T19:29:14.329Z,2.23
2019-05-02T19:31:52.544Z,1.70
2019-05-02T19:34:25.316Z,2.47
2019-05-02T19:36:52.847Z,2.10
2019-05-02T19:39:23.984Z,1.90
2019-05-02T19:41:52.450Z,2.33
2019-05-02T19:44:28.659Z,2.00
2019-05-02T19:46:52.066Z,2.97
2019-05-02T19:49:22.406Z,1.63
2019-05-02T19:51:56.549Z,2.20
2019-05-02T19:54:22.034Z,1.83
2019-05-02T19:56:52.379Z,2.03
2019-05-02T19:59:24.525Z,2.30
2019-05-02T20:01:52.178Z,2.67
2019-05-02T20:04:22.172Z,2.43
2019-05-02T20:06:51.079Z,2.40
2019-05-02T20:09:19.795Z,2.83
2019-05-02T20:11:48.552Z,2.50
2019-05-02T20:14:17.272Z,2.63
2019-05-02T20:16:52.837Z,2.77
2019-05-02T20:19:23.097Z,2.43
2019-05-02T20:22:07.814Z,2.57
2019-05-02T20:25:00.234Z,2.23
2019-05-02T20:27:23.500Z,2.40
2019-05-02T20:29:52.340Z,2.50
2019-05-02T20:32:22.111Z,3.50
2019-05-02T20:34:51.028Z,2.40
2019-05-02T20:37:21.917Z,2.20
2019-05-02T20:39:50.431Z,1.97
2019-05-02T20:42:19.263Z,2.70
2019-05-02T20:44:48.003Z,2.90
2019-05-02T20:47:21.842Z,3.07
2019-05-02T20:49:51.865Z,2.97
2019-05-02T20:52:22.495Z,2.80
2019-05-02T20:54:52.380Z,2.67
2019-05-02T20:57:21.570Z,2.53
2019-05-02T20:59:52.322Z,3.20
2019-05-02T21:02:20.890Z,3.17
2019-05-02T21:04:51.889Z,3.30
2019-05-02T21:07:28.814Z,2.40
2019-05-02T21:10:02.008Z,2.70
2019-05-02T21:12:30.864Z,2.87
2019-05-02T21:15:01.616Z,3.43
2019-05-02T21:17:30.163Z,3.23
2019-05-02T21:19:58.879Z,2.47
2019-05-02T21:22:28.467Z,2.83
2019-05-02T21:24:57.287Z,2.80
2019-05-02T21:27:26.105Z,2.87
2019-05-02T21:29:54.903Z,2.73
2019-05-02T21:32:23.651Z,2.57
2019-05-02T21:34:52.505Z,2.67
2019-05-02T21:37:22.602Z,3.13
2019-05-02T21:39:52.056Z,2.80
2019-05-02T21:42:22.584Z,3.13
2019-05-02T21:44:51.892Z,2.60
2019-05-02T21:47:22.516Z,2.80
2019-05-02T21:50:01.827Z,2.70
2019-05-02T21:52:39.796Z,2.70
2019-05-02T21:55:15.818Z,3.10
2019-05-02T21:57:44.546Z,3.33
2019-05-02T22:00:15.355Z,3.37
2019-05-02T22:02:44.264Z,2.40
2019-05-02T22:05:12.987Z,3.30
2019-05-02T22:07:41.807Z,2.70
2019-05-02T22:10:12.131Z,2.90
2019-05-02T22:12:42.238Z,3.57
2019-05-02T22:15:12.755Z,1.97
2019-05-02T22:17:41.883Z,2.67
2019-05-02T22:20:12.253Z,2.97
2019-05-02T22:22:42.617Z,3.50
2019-05-02T22:25:11.797Z,3.60
2019-05-02T22:27:40.530Z,2.87
2019-05-02T22:30:09.254Z,2.43
2019-05-02T22:32:37.995Z,3.50
2019-05-02T22:35:06.734Z,3.17
2019-05-02T22:37:35.959Z,2.53
2019-05-02T22:40:08.079Z,3.50
2019-05-02T22:42:36.919Z,2.53
2019-05-02T22:45:05.855Z,3.80
2019-05-02T22:47:34.696Z,3.07
2019-05-02T22:50:03.602Z,2.87
2019-05-02T22:52:32.431Z,3.30
2019-05-02T22:55:02.979Z,2.27
2019-05-02T22:57:31.847Z,3.10
2019-05-02T23:00:01.918Z,2.43
2019-05-02T23:02:32.473Z,2.77
2019-05-02T23:05:02.057Z,3.20
2019-05-02T23:07:31.024Z,3.97
2019-05-02T23:10:02.032Z,3.03
2019-05-02T23:12:31.925Z,2.83
2019-05-02T23:15:01.959Z,3.00
2019-05-02T23:17:32.115Z,2.87
2019-05-02T23:20:02.152Z,3.20
2019-05-02T23:22:32.362Z,3.63
2019-05-02T23:25:22.586Z,2.60
2019-05-02T23:27:57.592Z,2.50
2019-05-02T23:30:26.430Z,3.43
2019-05-02T23:32:55.252Z,3.07
2019-05-02T23:35:24.072Z,2.90
2019-05-02T23:37:53.048Z,4.30
2019-05-02T23:40:21.913Z,3.73
2019-05-02T23:42:52.410Z,3.13
2019-05-02T23:45:22.556Z,3.27
2019-05-02T23:47:52.783Z,3.23
2019-05-02T23:50:22.894Z,3.10
2019-05-02T23:52:51.860Z,2.97
2019-05-02T23:55:22.699Z,3.67
2019-05-02T23:57:52.309Z,3.23
